sensor_id;sensor_type;location;lat;lon;timestamp;pressure;altitude;pressure_sealevel;temperature;humidity
929;BME280;451;47.988;7.842;2023-03-25T00:07:18;98091.63;;;11.55;82.17
929;BME280;451;47.988;7.842;2023-03-25T00:16:23;98082.69;;;11.56;82.05
929;BME280;451;47.988;7.842;2023-03-25T00:25:26;98069.59;;;11.42;84.38
929;BME280;451;47.988;7.842;2023-03-25T00:34:30;98031.78;;;11.28;84.26
929;BME280;451;47.988;7.842;2023-03-25T00:43:35;98038.28;;;11.32;83.36
929;BME280;451;47.988;7.842;2023-03-25T00:52:40;98047.91;;;11.25;92.22
929;BME280;451;47.988;7.842;2023-03-25T01:01:43;98077.63;;;11.04;92.71
929;BME280;451;47.988;7.842;2023-03-25T01:10:48;98026.94;;;10.96;88.14
929;BME280;451;47.988;7.842;2023-03-25T01:19:51;98050.34;;;10.90;87.59
929;BME280;451;47.988;7.842;2023-03-25T01:28:56;98085.19;;;10.93;86.27
929;BME280;451;47.988;7.842;2023-03-25T01:37:59;98057.59;;;11.03;83.30
929;BME280;451;47.988;7.842;2023-03-25T01:47:04;98050.28;;;11.20;80.52
929;BME280;451;47.988;7.842;2023-03-25T01:56:11;98080.53;;;11.24;84.35
929;BME280;451;47.988;7.842;2023-03-25T02:05:21;98115.47;;;10.36;100.00
929;BME280;451;47.988;7.842;2023-03-25T02:14:30;97999.19;;;9.06;100.00
929;BME280;451;47.988;7.842;2023-03-25T02:34:12;98095.53;;;8.65;100.00
929;BME280;451;47.988;7.842;2023-03-25T02:43:26;98113.19;;;8.79;96.71
929;BME280;451;47.988;7.842;2023-03-25T02:52:35;98137.09;;;8.84;96.31
929;BME280;451;47.988;7.842;2023-03-25T03:01:43;98115.50;;;8.74;99.34
929;BME280;451;47.988;7.842;2023-03-25T03:10:57;98144.16;;;8.59;100.00
929;BME280;451;47.988;7.842;2023-03-25T03:20:12;98147.44;;;8.45;100.00
929;BME280;451;47.988;7.842;2023-03-25T03:29:21;98126.66;;;8.35;100.00
929;BME280;451;47.988;7.842;2023-03-25T03:38:32;98145.31;;;8.24;100.00
929;BME280;451;47.988;7.842;2023-03-25T03:47:39;98119.91;;;8.25;100.00
929;BME280;451;47.988;7.842;2023-03-25T03:56:46;98142.03;;;8.55;100.00
929;BME280;451;47.988;7.842;2023-03-25T04:05:58;98139.41;;;8.71;100.00
929;BME280;451;47.988;7.842;2023-03-25T04:15:09;98101.78;;;8.39;98.32
929;BME280;451;47.988;7.842;2023-03-25T04:24:14;98159.38;;;8.72;99.04
929;BME280;451;47.988;7.842;2023-03-25T04:33:22;98158.75;;;8.62;99.06
929;BME280;451;47.988;7.842;2023-03-25T04:42:26;98137.75;;;8.70;100.00
929;BME280;451;47.988;7.842;2023-03-25T04:51:34;98167.75;;;8.35;100.00
929;BME280;451;47.988;7.842;2023-03-25T05:00:37;98141.00;;;7.91;100.00
929;BME280;451;47.988;7.842;2023-03-25T05:09:42;98168.84;;;8.16;100.00
929;BME280;451;47.988;7.842;2023-03-25T05:18:46;98163.91;;;7.97;100.00
929;BME280;451;47.988;7.842;2023-03-25T05:27:51;98161.97;;;7.99;100.00
929;BME280;451;47.988;7.842;2023-03-25T05:36:55;98193.91;;;8.27;100.00
929;BME280;451;47.988;7.842;2023-03-25T05:45:59;98189.84;;;8.32;100.00
929;BME280;451;47.988;7.842;2023-03-25T05:55:03;98215.94;;;8.00;100.00
929;BME280;451;47.988;7.842;2023-03-25T06:04:07;98164.31;;;8.59;100.00
929;BME280;451;47.988;7.842;2023-03-25T06:13:13;98150.03;;;8.69;100.00
929;BME280;451;47.988;7.842;2023-03-25T06:22:18;98090.31;;;8.32;100.00
929;BME280;451;47.988;7.842;2023-03-25T06:31:24;98175.34;;;9.17;100.00
929;BME280;451;47.988;7.842;2023-03-25T06:40:29;98159.75;;;9.24;100.00
929;BME280;451;47.988;7.842;2023-03-25T06:49:36;98155.16;;;9.57;100.00
929;BME280;451;47.988;7.842;2023-03-25T06:58:41;98146.53;;;9.48;100.00
929;BME280;451;47.988;7.842;2023-03-25T07:07:44;98140.34;;;9.72;97.84
929;BME280;451;47.988;7.842;2023-03-25T07:16:48;98159.78;;;9.55;98.61
929;BME280;451;47.988;7.842;2023-03-25T07:25:52;98087.56;;;9.67;95.43
929;BME280;451;47.988;7.842;2023-03-25T07:34:57;98128.72;;;10.20;94.28
929;BME280;451;47.988;7.842;2023-03-25T07:44:00;98143.09;;;10.01;99.18
929;BME280;451;47.988;7.842;2023-03-25T07:53:08;98166.88;;;9.46;100.00
929;BME280;451;47.988;7.842;2023-03-25T08:02:13;98160.00;;;9.37;100.00
929;BME280;451;47.988;7.842;2023-03-25T08:11:18;98103.81;;;9.31;100.00
929;BME280;451;47.988;7.842;2023-03-25T08:20:21;98160.59;;;10.40;99.76
929;BME280;451;47.988;7.842;2023-03-25T08:29:26;98172.06;;;10.24;99.21
929;BME280;451;47.988;7.842;2023-03-25T08:38:29;98175.72;;;10.07;99.57
929;BME280;451;47.988;7.842;2023-03-25T08:47:33;98185.22;;;10.39;98.05
929;BME280;451;47.988;7.842;2023-03-25T08:56:36;98178.03;;;10.33;95.49
929;BME280;451;47.988;7.842;2023-03-25T09:05:41;98208.34;;;10.12;96.98
929;BME280;451;47.988;7.842;2023-03-25T09:14:44;98180.47;;;10.57;91.65
929;BME280;451;47.988;7.842;2023-03-25T09:23:49;98173.84;;;10.46;88.41
929;BME280;451;47.988;7.842;2023-03-25T09:32:52;98190.00;;;10.96;87.37
929;BME280;451;47.988;7.842;2023-03-25T09:42:11;98178.75;;;11.02;85.09
929;BME280;451;47.988;7.842;2023-03-25T09:51:20;98204.78;;;10.97;86.10
929;BME280;451;47.988;7.842;2023-03-25T10:00:26;98069.69;;;9.62;91.21
929;BME280;451;47.988;7.842;2023-03-25T10:09:36;98207.13;;;10.54;87.13
929;BME280;451;47.988;7.842;2023-03-25T10:18:59;98235.56;;;11.11;85.25
929;BME280;451;47.988;7.842;2023-03-25T10:28:12;98227.69;;;12.20;79.52
929;BME280;451;47.988;7.842;2023-03-25T10:37:24;98239.72;;;12.23;78.88
929;BME280;451;47.988;7.842;2023-03-25T10:46:33;98227.59;;;12.71;75.81
929;BME280;451;47.988;7.842;2023-03-25T10:55:39;98189.06;;;13.25;73.63
929;BME280;451;47.988;7.842;2023-03-25T11:04:45;98225.06;;;13.05;74.07
929;BME280;451;47.988;7.842;2023-03-25T11:13:55;98206.22;;;12.87;78.84
929;BME280;451;47.988;7.842;2023-03-25T11:23:04;98186.81;;;13.22;77.45
929;BME280;451;47.988;7.842;2023-03-25T11:32:13;98181.63;;;14.70;71.31
929;BME280;451;47.988;7.842;2023-03-25T11:41:16;98202.72;;;15.56;65.74
929;BME280;451;47.988;7.842;2023-03-25T11:50:23;98193.16;;;14.30;59.20
929;BME280;451;47.988;7.842;2023-03-25T11:59:34;98222.63;;;13.66;65.63
929;BME280;451;47.988;7.842;2023-03-25T12:08:48;98223.25;;;14.29;66.50
929;BME280;451;47.988;7.842;2023-03-25T12:18:00;98202.97;;;15.28;61.24
929;BME280;451;47.988;7.842;2023-03-25T12:27:20;98138.84;;;15.00;58.27
929;BME280;451;47.988;7.842;2023-03-25T12:36:36;98088.00;;;14.45;62.86
929;BME280;451;47.988;7.842;2023-03-25T12:45:53;98178.94;;;15.36;60.22
929;BME280;451;47.988;7.842;2023-03-25T12:55:16;98181.06;;;15.72;58.91
929;BME280;451;47.988;7.842;2023-03-25T13:04:44;98190.56;;;15.22;61.17
929;BME280;451;47.988;7.842;2023-03-25T13:13:52;98176.31;;;14.50;63.99
929;BME280;451;47.988;7.842;2023-03-25T13:23:01;98215.56;;;13.11;87.71
929;BME280;451;47.988;7.842;2023-03-25T13:32:09;98194.81;;;12.80;98.31
929;BME280;451;47.988;7.842;2023-03-25T13:41:22;98174.84;;;12.49;94.72
929;BME280;451;47.988;7.842;2023-03-25T13:50:29;98201.44;;;11.91;93.93
929;BME280;451;47.988;7.842;2023-03-25T14:09:40;98223.06;;;13.76;84.58
929;BME280;451;47.988;7.842;2023-03-25T14:18:54;98205.91;;;14.06;77.01
929;BME280;451;47.988;7.842;2023-03-25T14:28:00;98099.59;;;13.44;70.40
929;BME280;451;47.988;7.842;2023-03-25T14:37:26;98193.38;;;14.35;66.82
929;BME280;451;47.988;7.842;2023-03-25T14:46:34;98192.53;;;14.28;67.32
929;BME280;451;47.988;7.842;2023-03-25T14:55:43;98140.91;;;14.45;65.72
929;BME280;451;47.988;7.842;2023-03-25T15:04:51;98162.72;;;14.80;66.56
929;BME280;451;47.988;7.842;2023-03-25T15:13:59;98179.59;;;13.79;68.02
929;BME280;451;47.988;7.842;2023-03-25T15:23:26;98164.72;;;13.71;63.59
929;BME280;451;47.988;7.842;2023-03-25T15:32:56;98122.22;;;14.53;63.25
929;BME280;451;47.988;7.842;2023-03-25T15:42:16;98129.72;;;14.36;65.75
929;BME280;451;47.988;7.842;2023-03-25T15:51:36;98165.53;;;13.24;74.57
929;BME280;451;47.988;7.842;2023-03-25T16:00:50;98115.19;;;12.98;70.32
929;BME280;451;47.988;7.842;2023-03-25T16:10:03;98072.88;;;11.80;72.10
929;BME280;451;47.988;7.842;2023-03-25T16:19:13;98161.94;;;12.82;70.87
929;BME280;451;47.988;7.842;2023-03-25T16:28:22;98153.63;;;12.79;66.80
929;BME280;451;47.988;7.842;2023-03-25T16:37:28;98177.22;;;13.97;66.64
929;BME280;451;47.988;7.842;2023-03-25T16:46:36;98170.09;;;13.91;68.12
929;BME280;451;47.988;7.842;2023-03-25T16:55:44;98163.56;;;13.80;67.75
929;BME280;451;47.988;7.842;2023-03-25T17:04:50;98128.91;;;13.62;69.68
929;BME280;451;47.988;7.842;2023-03-25T17:13:58;98006.63;;;12.66;68.55
929;BME280;451;47.988;7.842;2023-03-25T17:23:05;98045.31;;;13.28;68.06
929;BME280;451;47.988;7.842;2023-03-25T17:32:16;98164.88;;;14.37;66.19
929;BME280;451;47.988;7.842;2023-03-25T17:41:27;98121.66;;;13.77;67.03
929;BME280;451;47.988;7.842;2023-03-25T17:50:30;98116.41;;;13.90;66.29
929;BME280;451;47.988;7.842;2023-03-25T17:59:35;98172.00;;;14.30;66.06
929;BME280;451;47.988;7.842;2023-03-25T18:08:38;98190.31;;;13.29;65.37
929;BME280;451;47.988;7.842;2023-03-25T18:17:42;98185.69;;;12.82;66.24
929;BME280;451;47.988;7.842;2023-03-25T18:26:48;98186.09;;;12.58;65.65
929;BME280;451;47.988;7.842;2023-03-25T18:35:54;98178.06;;;12.45;67.17
929;BME280;451;47.988;7.842;2023-03-25T18:45:00;98198.16;;;12.67;68.19
929;BME280;451;47.988;7.842;2023-03-25T18:54:05;98213.81;;;12.47;69.33
929;BME280;451;47.988;7.842;2023-03-25T19:03:08;98183.53;;;12.22;70.53
929;BME280;451;47.988;7.842;2023-03-25T19:12:13;98098.47;;;11.71;70.65
929;BME280;451;47.988;7.842;2023-03-25T19:21:18;98201.63;;;12.46;69.99
929;BME280;451;47.988;7.842;2023-03-25T19:30:23;98091.41;;;11.57;69.28
929;BME280;451;47.988;7.842;2023-03-25T19:39:26;98199.72;;;12.19;70.68
929;BME280;451;47.988;7.842;2023-03-25T19:48:31;98194.84;;;12.16;72.20
929;BME280;451;47.988;7.842;2023-03-25T19:57:35;98186.06;;;11.94;73.40
929;BME280;451;47.988;7.842;2023-03-25T20:06:39;98188.47;;;11.75;73.82
929;BME280;451;47.988;7.842;2023-03-25T20:15:43;98171.13;;;11.65;74.31
929;BME280;451;47.988;7.842;2023-03-25T20:24:47;98153.56;;;11.22;74.65
929;BME280;451;47.988;7.842;2023-03-25T20:33:50;98139.56;;;11.07;75.56
929;BME280;451;47.988;7.842;2023-03-25T20:42:55;98195.94;;;11.42;75.11
929;BME280;451;47.988;7.842;2023-03-25T20:51:58;98129.50;;;10.96;75.08
929;BME280;451;47.988;7.842;2023-03-25T21:01:03;98177.78;;;11.32;77.01
929;BME280;451;47.988;7.842;2023-03-25T21:10:08;98196.53;;;11.58;77.08
929;BME280;451;47.988;7.842;2023-03-25T21:19:13;98117.25;;;11.32;78.85
929;BME280;451;47.988;7.842;2023-03-25T21:28:17;98173.28;;;11.62;77.45
929;BME280;451;47.988;7.842;2023-03-25T21:37:21;98107.66;;;11.10;77.11
929;BME280;451;47.988;7.842;2023-03-25T21:46:24;98185.84;;;11.60;77.55
929;BME280;451;47.988;7.842;2023-03-25T21:55:29;98093.41;;;11.04;77.76
929;BME280;451;47.988;7.842;2023-03-25T22:04:33;98184.94;;;11.67;78.14
929;BME280;451;47.988;7.842;2023-03-25T22:13:40;98172.28;;;11.63;78.79
929;BME280;451;47.988;7.842;2023-03-25T22:22:43;98156.63;;;11.40;80.55
929;BME280;451;47.988;7.842;2023-03-25T22:31:49;98131.84;;;11.49;80.41
929;BME280;451;47.988;7.842;2023-03-25T22:40:56;98148.00;;;11.61;82.85
929;BME280;451;47.988;7.842;2023-03-25T22:50:06;98139.13;;;11.68;81.14
929;BME280;451;47.988;7.842;2023-03-25T22:59:10;98055.88;;;10.96;81.22
929;BME280;451;47.988;7.842;2023-03-25T23:08:15;98125.31;;;11.45;80.65
929;BME280;451;47.988;7.842;2023-03-25T23:17:18;98128.75;;;11.31;82.90
929;BME280;451;47.988;7.842;2023-03-25T23:26:27;98110.31;;;11.46;81.63
929;BME280;451;47.988;7.842;2023-03-25T23:35:35;98099.84;;;11.67;80.62
929;BME280;451;47.988;7.842;2023-03-25T23:44:39;98092.38;;;11.49;79.63
929;BME280;451;47.988;7.842;2023-03-25T23:53:44;98074.03;;;11.41;79.19
